Time;durP1;ratioP1;P1;durP2;ratioP2;P2;SDS_P1;SDS_P2;PMS_P1;PMS_P2;Temp;Humidity;BMP_temperature;BMP_pressure;BME280_temperature;BME280_humidity;BME280_pressure;Samples;Min_cycle;Max_cycle;Signal;HPM_P1;HPM_P2
2022/01/14 03:02:15;;;;;;;35.92;13.73;;;;;;;2.18;76.52;101358.38;4987495;28;105904;-69
2022/01/14 03:04:41;;;;;;;23.80;11.27;;;;;;;2.24;77.18;101353.69;4985819;28;105947;-68
2022/01/14 03:07:08;;;;;;;22.63;10.30;;;;;;;2.27;77.46;101358.78;4985245;28;106648;-67
2022/01/14 03:09:35;;;;;;;21.95;11.40;;;;;;;2.33;78.02;101355.81;4984441;28;106090;-68
2022/01/14 03:12:03;;;;;;;31.63;13.35;;;;;;;2.41;77.81;101368.53;4984809;28;106027;-68
2022/01/14 03:14:28;;;;;;;30.02;13.10;;;;;;;2.46;77.56;101353.31;4985249;28;106140;-65
2022/01/14 03:16:55;;;;;;;25.98;13.43;;;;;;;2.51;78.06;101367.88;4985180;28;105847;-66
2022/01/14 03:19:25;;;;;;;28.60;13.30;;;;;;;2.57;77.92;101364.06;4984350;28;105759;-68
2022/01/14 03:22:05;;;;;;;30.83;13.97;;;;;;;2.60;77.86;101369.16;4984649;28;106032;-68
2022/01/14 03:27:02;;;;;;;26.77;14.13;;;;;;;2.68;78.05;101369.53;4981906;28;105918;-66
2022/01/14 03:29:28;;;;;;;27.40;13.90;;;;;;;2.71;77.93;101361.47;4984226;28;105720;-68
2022/01/14 03:31:53;;;;;;;31.20;15.15;;;;;;;2.70;77.65;101364.19;4984541;28;105783;-68
2022/01/14 03:34:18;;;;;;;26.30;14.80;;;;;;;2.68;77.65;101348.50;4985292;28;106184;-67
2022/01/14 03:36:44;;;;;;;30.48;14.23;;;;;;;2.72;77.91;101341.28;4984424;28;106246;-66
2022/01/14 03:39:10;;;;;;;25.27;11.13;;;;;;;2.70;77.75;101343.13;4984315;28;106110;-67
2022/01/14 03:41:35;;;;;;;34.72;15.77;;;;;;;2.69;77.45;101347.56;4983899;28;106030;-69
2022/01/14 03:44:01;;;;;;;23.23;10.57;;;;;;;2.70;77.87;101349.22;4984974;28;106720;-70
2022/01/14 03:46:26;;;;;;;32.83;13.73;;;;;;;2.69;77.94;101352.81;4984234;28;106194;-68
2022/01/14 03:48:52;;;;;;;23.75;12.98;;;;;;;2.68;77.87;101340.59;4984245;28;106017;-67
2022/01/14 03:51:19;;;;;;;27.83;13.30;;;;;;;2.67;77.73;101338.06;4984475;28;106069;-69
2022/01/14 03:53:46;;;;;;;29.65;14.73;;;;;;;2.65;78.14;101340.78;4984858;28;106796;-68
2022/01/14 03:56:12;;;;;;;30.55;14.18;;;;;;;2.66;77.55;101337.19;4983727;28;106271;-68
2022/01/14 03:58:37;;;;;;;22.90;10.02;;;;;;;2.69;77.77;101309.88;4983914;28;106241;-68
2022/01/14 04:01:03;;;;;;;24.33;14.07;;;;;;;2.64;77.71;101306.69;4983409;28;106205;-67
2022/01/14 04:03:28;;;;;;;28.30;13.15;;;;;;;2.63;77.45;101308.44;4984142;28;106256;-68
2022/01/14 04:05:53;;;;;;;23.38;9.80;;;;;;;2.60;77.45;101287.59;4983618;28;106231;-68
2022/01/14 04:08:19;;;;;;;25.35;11.13;;;;;;;2.56;76.98;101296.59;4984410;28;106774;-68
2022/01/14 04:10:46;;;;;;;20.55;9.52;;;;;;;2.54;77.37;101285.31;4983724;28;107155;-68
2022/01/14 04:13:18;;;;;;;23.58;10.63;;;;;;;2.49;77.29;101290.03;4974298;28;105914;-67
2022/01/14 04:15:46;;;;;;;28.77;14.32;;;;;;;2.44;77.23;101286.81;4970738;28;105946;-67
2022/01/14 04:18:15;;;;;;;28.45;13.90;;;;;;;2.43;77.50;101280.69;4970268;28;107104;-68
2022/01/14 04:20:42;;;;;;;28.20;14.90;;;;;;;2.42;77.19;101270.25;4970408;28;105891;-69
2022/01/14 04:23:08;;;;;;;30.50;12.90;;;;;;;2.39;77.16;101273.91;4968058;28;105819;-68
2022/01/14 04:25:35;;;;;;;25.50;11.02;;;;;;;2.37;77.21;101260.84;4970514;28;105803;-69
2022/01/14 04:28:01;;;;;;;20.88;9.75;;;;;;;2.35;77.14;101264.50;4961436;28;105982;-67
2022/01/14 04:30:26;;;;;;;26.52;13.75;;;;;;;2.29;76.74;101270.97;4960520;28;106317;-67
2022/01/14 04:32:52;;;;;;;17.67;10.07;;;;;;;2.30;76.83;101266.59;4960516;28;106501;-67
2022/01/14 04:35:17;;;;;;;23.17;11.20;;;;;;;2.28;77.11;101268.44;4950795;28;105883;-67
2022/01/14 04:37:43;;;;;;;26.35;12.32;;;;;;;2.25;77.23;101260.75;4949957;28;106002;-67
2022/01/14 04:40:12;;;;;;;23.00;11.95;;;;;;;2.24;77.06;101240.66;4949684;28;106087;-67
2022/01/14 04:42:41;;;;;;;22.42;10.82;;;;;;;2.23;76.93;101228.44;4950543;28;105862;-67
2022/01/14 04:45:07;;;;;;;26.50;13.48;;;;;;;2.21;76.96;101244.28;4949825;28;106343;-67
2022/01/14 04:47:44;;;;;;;26.30;11.80;;;;;;;2.21;77.10;101246.94;4950078;28;105984;-68
2022/01/14 04:50:20;;;;;;;29.17;13.27;;;;;;;2.23;77.26;101228.44;4950154;28;106098;-67
2022/01/14 04:52:47;;;;;;;31.65;14.10;;;;;;;2.24;76.88;101211.72;4950628;28;105940;-67
2022/01/14 04:55:15;;;;;;;25.27;11.85;;;;;;;2.23;77.18;101221.41;4950006;28;106225;-66
2022/01/14 04:57:41;;;;;;;28.15;13.95;;;;;;;2.21;76.92;101223.25;4949341;28;106776;-66
2022/01/14 05:00:10;;;;;;;25.55;12.68;;;;;;;2.22;76.88;101224.97;4949294;28;106089;-66
2022/01/14 05:02:37;;;;;;;18.52;9.07;;;;;;;2.26;77.20;101223.00;4952679;28;105969;-68
2022/01/14 05:05:04;;;;;;;27.20;13.45;;;;;;;2.23;76.82;101229.28;4962437;28;106243;-67
2022/01/14 05:07:29;;;;;;;27.27;13.18;;;;;;;2.24;77.19;101222.25;4967421;28;106110;-70
2022/01/14 05:12:31;;;;;;;29.33;12.98;;;;;;;2.28;77.00;101227.22;4956341;28;106093;-69
2022/01/14 05:14:56;;;;;;;31.05;14.73;;;;;;;2.29;77.07;101238.59;4957298;28;106243;-71
2022/01/14 05:17:22;;;;;;;31.23;15.85;;;;;;;2.34;77.32;101237.38;4964849;28;109310;-70
2022/01/14 05:19:47;;;;;;;27.23;12.40;;;;;;;2.38;77.26;101230.16;4969238;28;105993;-69
2022/01/14 05:22:13;;;;;;;25.17;11.70;;;;;;;2.40;77.19;101237.97;4967918;28;105883;-70
2022/01/14 05:24:38;;;;;;;35.97;15.18;;;;;;;2.41;77.10;101242.28;4955313;28;106003;-68
2022/01/14 05:27:04;;;;;;;29.23;13.77;;;;;;;2.44;76.64;101252.63;4954882;28;106880;-67
2022/01/14 05:29:29;;;;;;;28.60;13.35;;;;;;;2.43;76.80;101243.88;4949731;28;105969;-67
2022/01/14 05:32:03;;;;;;;29.70;13.90;;;;;;;2.46;76.78;101234.94;4950197;28;106145;-68
2022/01/14 05:34:33;;;;;;;29.40;13.38;;;;;;;2.45;76.92;101238.53;4949654;28;106194;-67
2022/01/14 05:37:00;;;;;;;28.38;14.50;;;;;;;2.48;76.65;101251.50;4949429;28;105755;-67
2022/01/14 05:39:25;;;;;;;24.98;13.30;;;;;;;2.48;76.80;101243.59;4948996;28;105990;-68
2022/01/14 05:41:52;;;;;;;19.60;10.70;;;;;;;2.49;76.63;101250.56;4955931;28;105984;-71
2022/01/14 05:44:18;;;;;;;25.83;12.60;;;;;;;2.48;76.84;101235.72;4969233;28;106223;-70
2022/01/14 05:46:43;;;;;;;24.30;12.18;;;;;;;2.46;77.08;101234.94;4968917;28;105907;-73
2022/01/14 05:49:08;;;;;;;25.15;12.02;;;;;;;2.46;76.75;101243.69;4968664;28;106056;-71
2022/01/14 05:51:34;;;;;;;21.60;10.45;;;;;;;2.47;76.70;101239.28;4969708;28;105847;-68
2022/01/14 05:53:59;;;;;;;25.98;10.70;;;;;;;2.45;76.68;101238.53;4968170;28;106185;-65
2022/01/14 05:56:25;;;;;;;27.23;12.15;;;;;;;2.45;76.91;101238.53;4967819;28;107504;-66
2022/01/14 05:58:50;;;;;;;29.63;13.43;;;;;;;2.44;76.68;101216.63;4968240;28;106021;-67
2022/01/14 06:01:16;;;;;;;26.38;12.85;;;;;;;2.46;76.73;101216.53;4968307;28;106096;-66
2022/01/14 06:03:41;;;;;;;24.30;11.18;;;;;;;2.45;76.53;101202.56;4968195;28;106275;-71
2022/01/14 06:06:06;;;;;;;25.70;12.90;;;;;;;2.46;76.95;101198.13;4968511;28;106388;-70
2022/01/14 06:08:32;;;;;;;23.05;11.15;;;;;;;2.47;76.91;101194.56;4968330;28;106437;-70
2022/01/14 06:10:57;;;;;;;20.50;10.90;;;;;;;2.46;76.54;101184.97;4968491;28;106287;-70
2022/01/14 06:13:23;;;;;;;30.05;14.27;;;;;;;2.44;76.38;101192.13;4968400;28;106147;-72
2022/01/14 06:15:48;;;;;;;24.13;12.10;;;;;;;2.43;76.53;101195.69;4967412;28;106009;-72
2022/01/14 06:18:13;;;;;;;24.58;12.45;;;;;;;2.42;76.83;101196.63;4968100;28;105801;-74
2022/01/14 06:20:39;;;;;;;28.20;13.27;;;;;;;2.41;77.13;101194.94;4968674;28;105747;-71
2022/01/14 06:23:04;;;;;;;24.13;11.98;;;;;;;2.42;77.00;101201.88;4967769;28;105776;-67
2022/01/14 06:25:30;;;;;;;27.10;13.43;;;;;;;2.42;77.09;101209.78;4967646;28;105835;-68
2022/01/14 06:27:55;;;;;;;33.38;15.77;;;;;;;2.43;77.27;101209.66;4968298;28;105898;-69
2022/01/14 06:30:20;;;;;;;21.42;11.48;;;;;;;2.45;77.23;101201.72;4968295;28;105938;-69
2022/01/14 06:32:46;;;;;;;23.08;11.50;;;;;;;2.46;76.84;101195.50;4968138;28;106140;-71
2022/01/14 06:35:13;;;;;;;13.70;7.50;;;;;;;2.46;76.83;101188.47;4967609;28;106098;-71
2022/01/14 06:37:39;;;;;;;28.83;12.48;;;;;;;2.46;77.15;101171.81;4968157;28;107194;-68
2022/01/14 06:40:06;;;;;;;26.23;12.05;;;;;;;2.44;77.21;101178.97;4969206;28;106016;-68
2022/01/14 06:42:32;;;;;;;24.50;11.65;;;;;;;2.46;77.49;101171.81;4966891;28;106310;-68
2022/01/14 06:44:57;;;;;;;27.52;11.30;;;;;;;2.49;77.28;101167.22;4958085;28;105806;-68
2022/01/14 06:47:23;;;;;;;28.85;13.40;;;;;;;2.49;77.16;101171.66;4947916;28;109636;-68
2022/01/14 06:49:48;;;;;;;25.50;12.40;;;;;;;2.48;77.23;101177.84;4948694;28;105937;-67
2022/01/14 06:52:14;;;;;;;25.25;12.02;;;;;;;2.48;77.46;101178.69;4948470;28;106408;-64
2022/01/14 06:54:39;;;;;;;24.02;11.23;;;;;;;2.50;77.34;101173.31;4948531;28;106129;-65
2022/01/14 06:57:05;;;;;;;30.17;13.38;;;;;;;2.49;77.28;101172.50;4953698;28;105817;-66
2022/01/14 06:59:30;;;;;;;19.38;10.30;;;;;;;2.51;77.18;101151.34;4958689;28;106762;-66
2022/01/14 07:01:56;;;;;;;23.25;12.52;;;;;;;2.51;77.53;101181.13;4960331;28;106990;-66
2022/01/14 07:04:21;;;;;;;23.33;11.98;;;;;;;2.51;77.38;101175.03;4967709;28;105987;-67
2022/01/14 07:06:46;;;;;;;26.05;10.32;;;;;;;2.50;77.52;101163.66;4967931;28;106222;-67
2022/01/14 07:09:12;;;;;;;26.05;12.40;;;;;;;2.51;77.71;101175.03;4964032;28;106031;-67
2022/01/14 07:11:37;;;;;;;25.48;12.27;;;;;;;2.53;77.78;101170.53;4948257;28;106158;-64
2022/01/14 07:14:04;;;;;;;23.38;12.95;;;;;;;2.55;77.61;101173.91;4947837;28;106031;-66
2022/01/14 07:16:30;;;;;;;24.98;11.85;;;;;;;2.58;77.88;101168.44;4948099;28;106107;-66
2022/01/14 07:18:55;;;;;;;31.20;14.00;;;;;;;2.60;77.81;101158.69;4948767;28;106635;-66
2022/01/14 07:21:20;;;;;;;21.13;11.48;;;;;;;2.61;77.56;101157.75;4950602;28;106225;-65
2022/01/14 07:23:46;;;;;;;26.27;11.60;;;;;;;2.63;77.64;101152.38;4957849;28;105940;-66
2022/01/14 07:26:11;;;;;;;22.02;11.18;;;;;;;2.64;77.81;101144.41;4956171;28;106056;-65
2022/01/14 07:28:37;;;;;;;20.25;10.20;;;;;;;2.66;77.39;101145.13;4958805;28;105767;-70
2022/01/14 07:31:02;;;;;;;14.13;7.85;;;;;;;2.68;77.57;101140.63;4965405;28;105716;-69
2022/01/14 07:33:28;;;;;;;19.83;11.02;;;;;;;2.69;77.32;101136.22;4967752;28;107087;-69
2022/01/14 07:35:53;;;;;;;20.83;11.25;;;;;;;2.70;77.36;101137.91;4965614;28;106124;-69
2022/01/14 07:38:18;;;;;;;20.80;10.18;;;;;;;2.71;77.97;101143.06;4948124;28;105858;-65
2022/01/14 07:40:44;;;;;;;20.38;10.90;;;;;;;2.69;77.62;101137.06;4947768;28;106198;-71
2022/01/14 07:43:09;;;;;;;25.00;10.82;;;;;;;2.71;77.53;101150.97;4947986;28;105939;-71
2022/01/14 07:45:34;;;;;;;27.30;12.35;;;;;;;2.74;77.80;101154.34;4947601;28;106362;-66
2022/01/14 07:48:00;;;;;;;24.73;11.55;;;;;;;2.74;77.87;101149.94;4950072;28;106104;-68
2022/01/14 07:50:25;;;;;;;21.42;10.90;;;;;;;2.78;77.97;101133.00;4951302;28;106199;-64
2022/01/14 07:52:50;;;;;;;21.05;10.98;;;;;;;2.81;78.15;101147.75;4962579;28;106540;-64
2022/01/14 07:55:16;;;;;;;19.38;10.57;;;;;;;2.82;77.79;101145.03;4963420;28;106098;-65
2022/01/14 07:57:41;;;;;;;17.05;8.32;;;;;;;2.84;78.19;101144.94;4962592;28;106093;-65
2022/01/14 08:00:07;;;;;;;22.48;11.70;;;;;;;2.85;77.61;101130.84;4959503;28;106327;-64
2022/01/14 08:02:33;;;;;;;28.92;12.98;;;;;;;2.89;77.79;101140.22;4958318;28;106374;-64
2022/01/14 08:04:58;;;;;;;18.88;9.55;;;;;;;2.92;78.03;101126.88;4960413;28;106115;-64
2022/01/14 08:07:25;;;;;;;23.75;12.07;;;;;;;2.93;77.63;101122.47;4959609;28;107674;-65
2022/01/14 08:09:51;;;;;;;19.10;9.15;;;;;;;2.94;77.57;101118.88;4954277;28;106231;-65
2022/01/14 08:12:16;;;;;;;18.27;10.48;;;;;;;2.97;77.84;101124.78;4950393;28;105982;-65
2022/01/14 08:14:42;;;;;;;22.50;11.02;;;;;;;3.00;77.99;101121.94;4950383;28;105965;-67
2022/01/14 08:17:08;;;;;;;20.55;10.35;;;;;;;3.01;78.02;101114.91;4950931;28;106354;-66
2022/01/14 08:19:33;;;;;;;20.63;10.95;;;;;;;3.01;77.76;101122.81;4950190;28;106338;-67
2022/01/14 08:22:01;;;;;;;19.95;10.55;;;;;;;2.99;77.79;101127.31;4950110;28;106641;-64
2022/01/14 08:24:26;;;;;;;22.75;10.10;;;;;;;2.96;77.86;101117.81;4950015;28;105911;-63
2022/01/14 08:26:52;;;;;;;19.80;10.10;;;;;;;2.97;77.96;101119.53;4950720;28;105927;-64
2022/01/14 08:29:17;;;;;;;20.02;10.60;;;;;;;2.98;77.83;101109.81;4950063;28;106286;-67
2022/01/14 08:31:42;;;;;;;22.33;9.38;;;;;;;2.99;77.69;101104.50;4949963;28;106063;-65
2022/01/14 08:34:08;;;;;;;20.25;10.23;;;;;;;2.98;77.68;101094.91;4950193;28;106230;-64
2022/01/14 08:36:33;;;;;;;19.10;9.55;;;;;;;3.01;78.21;101094.69;4950885;28;106269;-65
2022/01/14 08:38:59;;;;;;;20.67;9.90;;;;;;;3.01;77.67;101085.97;4950047;28;106206;-64
2022/01/14 08:41:29;;;;;;;20.70;9.27;;;;;;;3.01;77.50;101076.25;4949990;28;106352;-64
2022/01/14 08:43:56;;;;;;;18.83;10.57;;;;;;;3.03;77.52;101078.78;4949891;28;106112;-67
2022/01/14 08:46:22;;;;;;;13.95;6.32;;;;;;;3.05;78.23;101079.56;4950326;28;106915;-65
2022/01/14 08:48:47;;;;;;;20.75;8.95;;;;;;;3.04;77.40;101072.59;4950517;28;106266;-65
2022/01/14 08:51:12;;;;;;;17.83;9.05;;;;;;;3.04;77.69;101062.91;4949753;28;106099;-67
2022/01/14 08:53:38;;;;;;;18.33;8.95;;;;;;;3.05;77.80;101064.59;4950086;28;105989;-65
2022/01/14 08:56:03;;;;;;;21.88;9.43;;;;;;;3.08;77.71;101062.72;4950965;28;106097;-66
2022/01/14 08:58:29;;;;;;;17.70;9.98;;;;;;;3.13;78.17;101065.88;4950417;28;105906;-67
2022/01/14 09:00:54;;;;;;;16.27;9.10;;;;;;;3.14;78.01;101070.19;4949865;28;106271;-67
2022/01/14 09:03:20;;;;;;;18.52;9.40;;;;;;;3.12;77.38;101078.19;4950385;28;105830;-67
2022/01/14 09:05:45;;;;;;;17.98;8.77;;;;;;;3.15;77.72;101083.25;4951324;28;105962;-71
2022/01/14 09:08:11;;;;;;;16.73;8.85;;;;;;;3.20;77.49;101085.63;4950779;28;106154;-64
2022/01/14 09:10:36;;;;;;;18.25;9.27;;;;;;;3.20;78.05;101094.34;4949705;28;106890;-66
2022/01/14 09:13:02;;;;;;;18.23;7.75;;;;;;;3.24;77.71;101095.00;4949527;28;106134;-67
2022/01/14 09:15:27;;;;;;;16.67;8.85;;;;;;;3.26;77.66;101073.81;4949258;28;106063;-67
2022/01/14 09:17:53;;;;;;;16.80;8.63;;;;;;;3.26;77.39;101087.81;4948850;28;106271;-66
2022/01/14 09:20:18;;;;;;;17.77;8.75;;;;;;;3.28;77.55;101101.75;4947663;28;107246;-64
2022/01/14 09:22:48;;;;;;;17.85;9.35;;;;;;;3.28;77.74;101091.22;4946969;28;106086;-68
2022/01/14 09:25:15;;;;;;;17.95;9.70;;;;;;;3.27;77.71;101093.94;4948077;28;106056;-68
2022/01/14 09:27:41;;;;;;;21.98;10.65;;;;;;;3.29;77.53;101098.16;4948671;28;106250;-69
2022/01/14 09:30:07;;;;;;;18.33;9.95;;;;;;;3.32;77.51;101105.88;4950460;28;105932;-78
2022/01/14 09:32:32;;;;;;;19.20;9.45;;;;;;;3.38;77.34;101107.25;4950371;28;105939;-75
2022/01/14 09:34:58;;;;;;;17.92;9.27;;;;;;;3.38;77.07;101092.28;4950358;28;105667;-66
2022/01/14 09:37:23;;;;;;;18.58;9.52;;;;;;;3.38;77.29;101086.19;4949716;28;105810;-69
2022/01/14 09:39:49;;;;;;;17.08;8.80;;;;;;;3.36;77.18;101098.59;4949164;28;106089;-70
2022/01/14 09:42:15;;;;;;;17.25;8.30;;;;;;;3.36;77.27;101083.66;4949071;28;105895;-71
2022/01/14 09:44:42;;;;;;;20.45;9.63;;;;;;;3.36;77.31;101078.38;4949822;28;105744;-66
2022/01/14 09:47:07;;;;;;;17.38;9.10;;;;;;;3.36;77.42;101085.44;4949625;28;105921;-67
2022/01/14 09:49:33;;;;;;;17.90;8.93;;;;;;;3.36;77.30;101080.16;4949335;28;106512;-65
2022/01/14 09:51:59;;;;;;;16.83;10.10;;;;;;;3.37;77.27;101085.31;4949362;28;105959;-66
2022/01/14 09:54:24;;;;;;;20.20;10.30;;;;;;;3.41;77.26;101079.88;4949675;28;106328;-64
2022/01/14 09:56:50;;;;;;;18.40;9.75;;;;;;;3.43;76.96;101096.41;4949689;28;106065;-65
